sensor_id;sensor_type;location;lat;lon;timestamp;pressure;altitude;pressure_sealevel;temperature;humidity
3968;BME280;9221;42.646;23.380;2022-08-19T00:00:06;94354.66;;;23.37;59.99
3968;BME280;9221;42.646;23.380;2022-08-19T00:02:32;94333.34;;;23.47;59.53
3968;BME280;9221;42.646;23.380;2022-08-19T00:04:58;94328.53;;;23.49;59.67
3968;BME280;9221;42.646;23.380;2022-08-19T00:07:23;94324.00;;;23.38;59.81
3968;BME280;9221;42.646;23.380;2022-08-19T00:09:49;94335.44;;;23.45;59.23
3968;BME280;9221;42.646;23.380;2022-08-19T00:12:14;94282.38;;;23.28;58.89
3968;BME280;9221;42.646;23.380;2022-08-19T00:14:41;94338.28;;;23.79;58.16
3968;BME280;9221;42.646;23.380;2022-08-19T00:17:07;94351.97;;;23.89;58.18
3968;BME280;9221;42.646;23.380;2022-08-19T00:19:34;94325.41;;;23.81;58.58
3968;BME280;9221;42.646;23.380;2022-08-19T00:22:00;94353.63;;;23.90;58.03
3968;BME280;9221;42.646;23.380;2022-08-19T00:24:26;94365.56;;;23.94;57.92
3968;BME280;9221;42.646;23.380;2022-08-19T00:26:54;94346.00;;;23.99;57.27
3968;BME280;9221;42.646;23.380;2022-08-19T00:29:21;94364.53;;;24.12;57.51
3968;BME280;9221;42.646;23.380;2022-08-19T00:31:47;94292.59;;;23.55;58.50
3968;BME280;9221;42.646;23.380;2022-08-19T00:34:13;94326.59;;;23.09;60.13
3968;BME280;9221;42.646;23.380;2022-08-19T00:36:43;94355.22;;;23.39;60.04
3968;BME280;9221;42.646;23.380;2022-08-19T00:39:08;94345.84;;;23.53;59.36
3968;BME280;9221;42.646;23.380;2022-08-19T00:41:34;94346.22;;;23.45;59.63
3968;BME280;9221;42.646;23.380;2022-08-19T00:44:26;94342.38;;;23.41;59.39
3968;BME280;9221;42.646;23.380;2022-08-19T00:46:53;94300.50;;;22.97;60.12
3968;BME280;9221;42.646;23.380;2022-08-19T00:49:40;94339.78;;;23.34;59.77
3968;BME280;9221;42.646;23.380;2022-08-19T00:52:15;94352.19;;;23.23;60.16
3968;BME280;9221;42.646;23.380;2022-08-19T00:54:42;94310.44;;;23.09;59.56
3968;BME280;9221;42.646;23.380;2022-08-19T00:57:10;94330.56;;;23.18;60.01
3968;BME280;9221;42.646;23.380;2022-08-19T00:59:42;94337.47;;;23.26;60.29
3968;BME280;9221;42.646;23.380;2022-08-19T01:02:11;94332.19;;;23.19;60.41
3968;BME280;9221;42.646;23.380;2022-08-19T01:04:37;94301.09;;;22.99;61.28
3968;BME280;9221;42.646;23.380;2022-08-19T01:07:02;94323.66;;;23.10;60.60
3968;BME280;9221;42.646;23.380;2022-08-19T01:09:28;94292.91;;;22.94;60.63
3968;BME280;9221;42.646;23.380;2022-08-19T01:11:55;94375.94;;;23.26;60.38
3968;BME280;9221;42.646;23.380;2022-08-19T01:14:21;94338.75;;;23.23;60.29
3968;BME280;9221;42.646;23.380;2022-08-19T01:16:46;94341.56;;;23.05;60.77
3968;BME280;9221;42.646;23.380;2022-08-19T01:19:26;94335.34;;;23.04;60.46
3968;BME280;9221;42.646;23.380;2022-08-19T01:21:59;94352.56;;;23.15;60.13
3968;BME280;9221;42.646;23.380;2022-08-19T01:24:26;94342.94;;;22.95;60.68
3968;BME280;9221;42.646;23.380;2022-08-19T01:26:52;94289.25;;;22.53;61.98
3968;BME280;9221;42.646;23.380;2022-08-19T01:29:18;94337.78;;;22.58;62.83
3968;BME280;9221;42.646;23.380;2022-08-19T01:31:43;94356.28;;;22.36;63.71
3968;BME280;9221;42.646;23.380;2022-08-19T01:34:09;94362.66;;;21.93;65.11
3968;BME280;9221;42.646;23.380;2022-08-19T01:36:45;94196.97;;;21.02;65.57
3968;BME280;9221;42.646;23.380;2022-08-19T01:39:16;94348.84;;;21.89;66.52
3968;BME280;9221;42.646;23.380;2022-08-19T01:41:42;94287.03;;;21.28;66.90
3968;BME280;9221;42.646;23.380;2022-08-19T01:44:09;94378.78;;;21.56;67.90
3968;BME280;9221;42.646;23.380;2022-08-19T01:46:35;94330.81;;;21.22;68.78
3968;BME280;9221;42.646;23.380;2022-08-19T01:49:02;94330.06;;;20.96;69.70
3968;BME280;9221;42.646;23.380;2022-08-19T01:51:27;94337.00;;;21.04;69.18
3968;BME280;9221;42.646;23.380;2022-08-19T01:53:53;94344.69;;;21.19;69.21
3968;BME280;9221;42.646;23.380;2022-08-19T01:56:19;94318.91;;;21.18;68.58
3968;BME280;9221;42.646;23.380;2022-08-19T01:58:50;94282.41;;;20.99;68.69
3968;BME280;9221;42.646;23.380;2022-08-19T02:01:17;94329.34;;;21.26;68.69
3968;BME280;9221;42.646;23.380;2022-08-19T02:03:43;94342.75;;;21.63;67.33
3968;BME280;9221;42.646;23.380;2022-08-19T02:06:08;94330.69;;;21.73;66.71
3968;BME280;9221;42.646;23.380;2022-08-19T02:08:36;94307.44;;;21.67;66.49
3968;BME280;9221;42.646;23.380;2022-08-19T02:11:02;94280.91;;;21.58;66.20
3968;BME280;9221;42.646;23.380;2022-08-19T02:13:28;94322.53;;;22.10;65.13
3968;BME280;9221;42.646;23.380;2022-08-19T02:15:54;94289.38;;;21.74;65.59
3968;BME280;9221;42.646;23.380;2022-08-19T02:18:19;94336.69;;;21.87;66.18
3968;BME280;9221;42.646;23.380;2022-08-19T02:20:46;94274.63;;;21.64;65.71
3968;BME280;9221;42.646;23.380;2022-08-19T02:23:13;94374.19;;;22.12;65.87
3968;BME280;9221;42.646;23.380;2022-08-19T02:25:40;94359.09;;;22.11;65.55
3968;BME280;9221;42.646;23.380;2022-08-19T02:28:07;94364.75;;;22.21;65.98
3968;BME280;9221;42.646;23.380;2022-08-19T02:30:32;94343.88;;;22.05;66.50
3968;BME280;9221;42.646;23.380;2022-08-19T02:32:58;94266.91;;;21.56;66.50
3968;BME280;9221;42.646;23.380;2022-08-19T02:35:23;94282.19;;;21.56;67.04
3968;BME280;9221;42.646;23.380;2022-08-19T02:37:49;94350.09;;;22.05;66.47
3968;BME280;9221;42.646;23.380;2022-08-19T02:40:34;94343.53;;;22.01;67.60
3968;BME280;9221;42.646;23.380;2022-08-19T02:43:01;94295.03;;;21.47;67.52
3968;BME280;9221;42.646;23.380;2022-08-19T02:45:32;94350.75;;;21.52;68.53
3968;BME280;9221;42.646;23.380;2022-08-19T02:47:57;94409.84;;;21.45;68.93
3968;BME280;9221;42.646;23.380;2022-08-19T02:50:23;94329.28;;;21.52;67.44
3968;BME280;9221;42.646;23.380;2022-08-19T02:52:48;94357.75;;;21.90;66.67
3968;BME280;9221;42.646;23.380;2022-08-19T02:55:14;94309.06;;;21.68;66.48
3968;BME280;9221;42.646;23.380;2022-08-19T02:57:40;94305.66;;;21.60;66.71
3968;BME280;9221;42.646;23.380;2022-08-19T03:00:07;94221.13;;;20.84;66.80
3968;BME280;9221;42.646;23.380;2022-08-19T03:02:34;94321.44;;;21.50;66.29
3968;BME280;9221;42.646;23.380;2022-08-19T03:05:00;94325.78;;;21.33;67.22
3968;BME280;9221;42.646;23.380;2022-08-19T03:07:27;94344.97;;;21.29;67.96
3968;BME280;9221;42.646;23.380;2022-08-19T03:09:52;94366.25;;;20.87;69.67
3968;BME280;9221;42.646;23.380;2022-08-19T03:12:18;94427.81;;;20.69;70.84
3968;BME280;9221;42.646;23.380;2022-08-19T03:14:43;94366.72;;;20.77;71.18
3968;BME280;9221;42.646;23.380;2022-08-19T03:17:09;94341.94;;;20.82;70.75
3968;BME280;9221;42.646;23.380;2022-08-19T03:19:34;94340.09;;;20.83;70.98
3968;BME280;9221;42.646;23.380;2022-08-19T03:22:00;94296.88;;;20.47;71.18
3968;BME280;9221;42.646;23.380;2022-08-19T03:24:25;94336.47;;;20.70;71.32
3968;BME280;9221;42.646;23.380;2022-08-19T03:26:54;94337.16;;;20.59;71.38
3968;BME280;9221;42.646;23.380;2022-08-19T03:29:27;94323.56;;;20.60;71.54
3968;BME280;9221;42.646;23.380;2022-08-19T03:31:53;94297.31;;;20.44;71.49
3968;BME280;9221;42.646;23.380;2022-08-19T03:34:23;94376.19;;;20.80;71.24
3968;BME280;9221;42.646;23.380;2022-08-19T03:36:52;94342.69;;;20.89;70.67
3968;BME280;9221;42.646;23.380;2022-08-19T03:39:19;94364.97;;;20.90;70.72
3968;BME280;9221;42.646;23.380;2022-08-19T03:41:46;94352.53;;;20.45;71.53
3968;BME280;9221;42.646;23.380;2022-08-19T03:44:18;94294.94;;;20.54;70.56
3968;BME280;9221;42.646;23.380;2022-08-19T03:46:47;94323.47;;;20.74;70.51
3968;BME280;9221;42.646;23.380;2022-08-19T03:49:13;94313.34;;;20.76;69.80
3968;BME280;9221;42.646;23.380;2022-08-19T03:51:38;94376.28;;;21.36;69.75
3968;BME280;9221;42.646;23.380;2022-08-19T03:54:07;94330.66;;;20.99;69.72
3968;BME280;9221;42.646;23.380;2022-08-19T03:56:34;94374.41;;;21.18;69.45
3968;BME280;9221;42.646;23.380;2022-08-19T03:59:02;94396.38;;;21.08;69.83
3968;BME280;9221;42.646;23.380;2022-08-19T04:01:28;94352.16;;;20.92;69.45
3968;BME280;9221;42.646;23.380;2022-08-19T04:03:58;94389.00;;;20.78;70.16
3968;BME280;9221;42.646;23.380;2022-08-19T04:06:29;94329.63;;;20.49;70.62
3968;BME280;9221;42.646;23.380;2022-08-19T04:08:57;94330.97;;;20.58;70.13
3968;BME280;9221;42.646;23.380;2022-08-19T04:11:29;94375.66;;;20.65;71.08
3968;BME280;9221;42.646;23.380;2022-08-19T04:13:55;94407.25;;;20.88;70.66
3968;BME280;9221;42.646;23.380;2022-08-19T04:16:23;94364.69;;;20.73;70.32
3968;BME280;9221;42.646;23.380;2022-08-19T04:18:49;94422.06;;;21.16;69.76
3968;BME280;9221;42.646;23.380;2022-08-19T04:21:22;94422.13;;;21.09;69.37
3968;BME280;9221;42.646;23.380;2022-08-19T04:23:48;94437.66;;;20.75;69.69
3968;BME280;9221;42.646;23.380;2022-08-19T04:26:25;94282.31;;;20.11;70.30
3968;BME280;9221;42.646;23.380;2022-08-19T04:28:52;94348.69;;;20.59;70.13
3968;BME280;9221;42.646;23.380;2022-08-19T04:31:20;94437.75;;;20.61;70.68
3968;BME280;9221;42.646;23.380;2022-08-19T04:33:46;94436.97;;;20.86;71.29
3968;BME280;9221;42.646;23.380;2022-08-19T04:36:22;94369.91;;;20.61;71.14
3968;BME280;9221;42.646;23.380;2022-08-19T04:38:52;94413.28;;;20.83;71.52
3968;BME280;9221;42.646;23.380;2022-08-19T04:41:18;94405.72;;;20.73;72.15
3968;BME280;9221;42.646;23.380;2022-08-19T04:44:02;94397.53;;;20.68;73.10
3968;BME280;9221;42.646;23.380;2022-08-19T04:46:27;94403.50;;;20.63;73.54
3968;BME280;9221;42.646;23.380;2022-08-19T04:48:55;94407.19;;;20.62;73.59
3968;BME280;9221;42.646;23.380;2022-08-19T04:51:22;94356.88;;;20.39;73.76
3968;BME280;9221;42.646;23.380;2022-08-19T04:53:48;94385.13;;;20.74;73.76
3968;BME280;9221;42.646;23.380;2022-08-19T04:56:16;94468.53;;;20.84;73.17
3968;BME280;9221;42.646;23.380;2022-08-19T04:58:44;94340.59;;;20.73;72.67
3968;BME280;9221;42.646;23.380;2022-08-19T05:01:25;94430.97;;;21.16;72.16
3968;BME280;9221;42.646;23.380;2022-08-19T05:03:51;94391.41;;;21.30;71.62
3968;BME280;9221;42.646;23.380;2022-08-19T05:06:19;94344.41;;;21.27;70.92
3968;BME280;9221;42.646;23.380;2022-08-19T05:08:45;94358.75;;;21.58;69.48
3968;BME280;9221;42.646;23.380;2022-08-19T05:11:19;94365.72;;;21.59;69.38
3968;BME280;9221;42.646;23.380;2022-08-19T05:13:48;94432.53;;;21.86;69.55
3968;BME280;9221;42.646;23.380;2022-08-19T05:16:15;94436.38;;;22.09;68.70
3968;BME280;9221;42.646;23.380;2022-08-19T05:18:41;94403.66;;;22.30;68.04
3968;BME280;9221;42.646;23.380;2022-08-19T05:21:26;94427.84;;;22.30;67.79
3968;BME280;9221;42.646;23.380;2022-08-19T05:24:11;94380.50;;;22.48;67.30
3968;BME280;9221;42.646;23.380;2022-08-19T05:26:40;94394.13;;;22.77;66.91
3968;BME280;9221;42.646;23.380;2022-08-19T05:29:06;94431.50;;;23.09;65.58
3968;BME280;9221;42.646;23.380;2022-08-19T05:31:33;94405.44;;;23.33;64.40
3968;BME280;9221;42.646;23.380;2022-08-19T05:33:59;94383.63;;;23.11;64.11
3968;BME280;9221;42.646;23.380;2022-08-19T05:36:29;94365.31;;;23.20;63.98
3968;BME280;9221;42.646;23.380;2022-08-19T05:38:58;94394.91;;;23.55;63.78
3968;BME280;9221;42.646;23.380;2022-08-19T05:41:23;94353.44;;;23.56;63.12
3968;BME280;9221;42.646;23.380;2022-08-19T05:43:55;94403.66;;;24.15;62.08
3968;BME280;9221;42.646;23.380;2022-08-19T05:46:21;94416.00;;;24.40;61.18
3968;BME280;9221;42.646;23.380;2022-08-19T05:48:47;94385.16;;;24.47;61.63
3968;BME280;9221;42.646;23.380;2022-08-19T05:51:14;94416.78;;;24.81;60.97
3968;BME280;9221;42.646;23.380;2022-08-19T05:53:40;94408.59;;;24.93;60.59
3968;BME280;9221;42.646;23.380;2022-08-19T05:56:07;94321.09;;;24.55;59.15
3968;BME280;9221;42.646;23.380;2022-08-19T05:58:34;94401.25;;;25.22;57.70
3968;BME280;9221;42.646;23.380;2022-08-19T06:00:59;94410.25;;;25.28;57.13
3968;BME280;9221;42.646;23.380;2022-08-19T06:03:31;94437.66;;;25.37;58.62
3968;BME280;9221;42.646;23.380;2022-08-19T06:05:57;94356.25;;;25.11;58.12
3968;BME280;9221;42.646;23.380;2022-08-19T06:08:24;94408.78;;;25.37;57.03
3968;BME280;9221;42.646;23.380;2022-08-19T06:10:50;94407.00;;;25.43;57.34
3968;BME280;9221;42.646;23.380;2022-08-19T06:13:15;94415.63;;;25.62;57.15
3968;BME280;9221;42.646;23.380;2022-08-19T06:15:40;94410.22;;;25.11;58.64
3968;BME280;9221;42.646;23.380;2022-08-19T06:18:09;94433.97;;;25.09;59.77
3968;BME280;9221;42.646;23.380;2022-08-19T06:20:34;94393.22;;;24.76;59.67
3968;BME280;9221;42.646;23.380;2022-08-19T06:23:00;94362.44;;;24.60;59.36
3968;BME280;9221;42.646;23.380;2022-08-19T06:25:25;94426.41;;;25.11;58.70
3968;BME280;9221;42.646;23.380;2022-08-19T06:27:50;94457.31;;;24.86;58.80
3968;BME280;9221;42.646;23.380;2022-08-19T06:30:16;94373.94;;;24.67;58.43
3968;BME280;9221;42.646;23.380;2022-08-19T06:32:41;94421.53;;;24.91;59.49
3968;BME280;9221;42.646;23.380;2022-08-19T06:35:07;94439.28;;;25.04;59.64
3968;BME280;9221;42.646;23.380;2022-08-19T06:37:33;94484.38;;;25.54;59.21
3968;BME280;9221;42.646;23.380;2022-08-19T06:39:58;94394.19;;;25.55;57.47
3968;BME280;9221;42.646;23.380;2022-08-19T06:42:24;94365.28;;;25.33;58.58
3968;BME280;9221;42.646;23.380;2022-08-19T06:44:49;94368.06;;;25.39;57.79
3968;BME280;9221;42.646;23.380;2022-08-19T06:47:18;94400.91;;;25.36;57.60
3968;BME280;9221;42.646;23.380;2022-08-19T06:49:44;94360.75;;;25.22;57.53
3968;BME280;9221;42.646;23.380;2022-08-19T06:52:10;94371.72;;;25.49;57.76
3968;BME280;9221;42.646;23.380;2022-08-19T06:54:40;94414.38;;;26.09;56.61
3968;BME280;9221;42.646;23.380;2022-08-19T06:57:06;94407.25;;;26.25;55.72
3968;BME280;9221;42.646;23.380;2022-08-19T06:59:34;94373.41;;;25.78;55.53
3968;BME280;9221;42.646;23.380;2022-08-19T07:02:02;94418.88;;;26.25;56.01
3968;BME280;9221;42.646;23.380;2022-08-19T07:04:33;94449.91;;;26.45;55.93
3968;BME280;9221;42.646;23.380;2022-08-19T07:07:07;94396.94;;;26.44;54.86
3968;BME280;9221;42.646;23.380;2022-08-19T07:09:40;94431.19;;;26.88;54.12
3968;BME280;9221;42.646;23.380;2022-08-19T07:12:08;94381.28;;;26.73;53.15
3968;BME280;9221;42.646;23.380;2022-08-19T07:14:35;94389.44;;;26.78;52.55
3968;BME280;9221;42.646;23.380;2022-08-19T07:17:03;94397.66;;;26.66;53.02
3968;BME280;9221;42.646;23.380;2022-08-19T07:19:29;94455.44;;;27.05;53.05
3968;BME280;9221;42.646;23.380;2022-08-19T07:21:55;94406.19;;;27.08;52.28
3968;BME280;9221;42.646;23.380;2022-08-19T07:24:23;94424.78;;;27.31;51.97
3968;BME280;9221;42.646;23.380;2022-08-19T07:26:51;94423.22;;;27.03;51.62
3968;BME280;9221;42.646;23.380;2022-08-19T07:29:17;94412.59;;;26.96;51.90
3968;BME280;9221;42.646;23.380;2022-08-19T07:31:43;94438.06;;;27.33;51.71
3968;BME280;9221;42.646;23.380;2022-08-19T07:34:11;94437.28;;;27.70;51.07
3968;BME280;9221;42.646;23.380;2022-08-19T07:36:40;94396.34;;;27.72;50.33
3968;BME280;9221;42.646;23.380;2022-08-19T07:39:20;94442.22;;;27.83;49.43
3968;BME280;9221;42.646;23.380;2022-08-19T07:41:46;94363.50;;;27.20;49.80
3968;BME280;9221;42.646;23.380;2022-08-19T07:44:14;94371.38;;;27.59;50.03
3968;BME280;9221;42.646;23.380;2022-08-19T07:46:43;94367.13;;;27.79;49.02
3968;BME280;9221;42.646;23.380;2022-08-19T07:49:10;94423.75;;;28.33;48.75
3968;BME280;9221;42.646;23.380;2022-08-19T07:51:43;94402.19;;;28.64;48.11
3968;BME280;9221;42.646;23.380;2022-08-19T07:54:08;94418.81;;;29.09;47.21
3968;BME280;9221;42.646;23.380;2022-08-19T07:56:33;94384.31;;;29.15;46.05
3968;BME280;9221;42.646;23.380;2022-08-19T07:58:59;94375.84;;;29.52;45.20
3968;BME280;9221;42.646;23.380;2022-08-19T08:01:26;94425.22;;;30.11;44.90
3968;BME280;9221;42.646;23.380;2022-08-19T08:03:54;94424.28;;;30.47;43.56
3968;BME280;9221;42.646;23.380;2022-08-19T08:06:39;94411.03;;;30.80;42.07
3968;BME280;9221;42.646;23.380;2022-08-19T08:09:29;94415.72;;;31.14;41.67
3968;BME280;9221;42.646;23.380;2022-08-19T08:12:00;94418.16;;;31.50;40.61
3968;BME280;9221;42.646;23.380;2022-08-19T08:14:36;94427.03;;;31.66;40.01
3968;BME280;9221;42.646;23.380;2022-08-19T08:17:04;94419.06;;;31.99;39.65
3968;BME280;9221;42.646;23.380;2022-08-19T08:19:30;94319.22;;;31.73;38.98
3968;BME280;9221;42.646;23.380;2022-08-19T08:21:57;94352.84;;;32.12;39.06
3968;BME280;9221;42.646;23.380;2022-08-19T08:24:25;94408.53;;;32.35;38.64
3968;BME280;9221;42.646;23.380;2022-08-19T08:26:51;94398.81;;;32.72;37.76
3968;BME280;9221;42.646;23.380;2022-08-19T08:29:16;94371.63;;;33.00;37.10
3968;BME280;9221;42.646;23.380;2022-08-19T08:31:43;94423.00;;;32.98;36.05
3968;BME280;9221;42.646;23.380;2022-08-19T08:34:10;94425.34;;;33.43;36.42
3968;BME280;9221;42.646;23.380;2022-08-19T08:36:40;94344.03;;;33.49;35.75
3968;BME280;9221;42.646;23.380;2022-08-19T08:39:11;94367.59;;;33.78;35.84
3968;BME280;9221;42.646;23.380;2022-08-19T08:42:05;94382.59;;;34.22;35.61
3968;BME280;9221;42.646;23.380;2022-08-19T08:47:04;94394.31;;;34.78;32.60
3968;BME280;9221;42.646;23.380;2022-08-19T08:49:45;94373.22;;;34.65;33.00
3968;BME280;9221;42.646;23.380;2022-08-19T08:52:21;94392.09;;;34.66;31.50
3968;BME280;9221;42.646;23.380;2022-08-19T08:54:50;94385.41;;;34.72;31.95
3968;BME280;9221;42.646;23.380;2022-08-19T09:00:00;94387.72;;;35.92;30.54
3968;BME280;9221;42.646;23.380;2022-08-19T09:02:29;94353.03;;;36.05;29.78
3968;BME280;9221;42.646;23.380;2022-08-19T09:04:55;94332.56;;;36.12;29.14
3968;BME280;9221;42.646;23.380;2022-08-19T09:10:17;94377.50;;;36.91;28.36
3968;BME280;9221;42.646;23.380;2022-08-19T09:15:18;94373.59;;;37.09;27.38
3968;BME280;9221;42.646;23.380;2022-08-19T09:17:47;94363.41;;;37.19;26.50
3968;BME280;9221;42.646;23.380;2022-08-19T09:20:17;94389.44;;;37.48;25.55
3968;BME280;9221;42.646;23.380;2022-08-19T09:22:43;94364.22;;;37.28;26.34
3968;BME280;9221;42.646;23.380;2022-08-19T09:25:12;94371.50;;;37.41;26.01
3968;BME280;9221;42.646;23.380;2022-08-19T09:27:39;94355.44;;;37.61;25.59
3968;BME280;9221;42.646;23.380;2022-08-19T09:30:06;94372.06;;;37.82;26.15
3968;BME280;9221;42.646;23.380;2022-08-19T09:32:32;94320.03;;;37.42;26.46
3968;BME280;9221;42.646;23.380;2022-08-19T09:34:58;94333.16;;;37.36;25.82
3968;BME280;9221;42.646;23.380;2022-08-19T09:37:25;94313.47;;;37.73;25.16
3968;BME280;9221;42.646;23.380;2022-08-19T09:39:51;94366.69;;;37.86;25.32
3968;BME280;9221;42.646;23.380;2022-08-19T09:42:17;94357.72;;;38.06;24.90
3968;BME280;9221;42.646;23.380;2022-08-19T09:44:43;94368.91;;;38.01;25.51
3968;BME280;9221;42.646;23.380;2022-08-19T09:47:11;94378.16;;;38.65;24.75
3968;BME280;9221;42.646;23.380;2022-08-19T09:49:37;94307.84;;;38.59;23.83
3968;BME280;9221;42.646;23.380;2022-08-19T09:52:05;94310.47;;;38.76;23.68
3968;BME280;9221;42.646;23.380;2022-08-19T09:54:30;94315.75;;;39.24;23.62
3968;BME280;9221;42.646;23.380;2022-08-19T09:56:58;94336.53;;;39.21;23.33
3968;BME280;9221;42.646;23.380;2022-08-19T09:59:26;94301.94;;;39.24;22.95
3968;BME280;9221;42.646;23.380;2022-08-19T10:01:52;94335.38;;;39.56;22.64
3968;BME280;9221;42.646;23.380;2022-08-19T10:04:18;94289.56;;;39.30;22.12
3968;BME280;9221;42.646;23.380;2022-08-19T10:06:45;94232.69;;;39.04;22.54
3968;BME280;9221;42.646;23.380;2022-08-19T10:09:14;94278.63;;;39.00;22.08
3968;BME280;9221;42.646;23.380;2022-08-19T10:11:41;94324.16;;;39.28;22.12
3968;BME280;9221;42.646;23.380;2022-08-19T10:14:07;94300.53;;;39.18;22.45
3968;BME280;9221;42.646;23.380;2022-08-19T10:16:35;94324.31;;;39.56;22.06
3968;BME280;9221;42.646;23.380;2022-08-19T10:19:01;94302.09;;;39.28;22.66
3968;BME280;9221;42.646;23.380;2022-08-19T10:21:30;94282.16;;;39.22;22.04
3968;BME280;9221;42.646;23.380;2022-08-19T10:23:59;94285.22;;;39.54;21.85
3968;BME280;9221;42.646;23.380;2022-08-19T10:26:29;94281.47;;;39.71;22.13
3968;BME280;9221;42.646;23.380;2022-08-19T10:28:56;94335.94;;;40.07;22.78
3968;BME280;9221;42.646;23.380;2022-08-19T10:31:28;94274.63;;;39.56;22.03
3968;BME280;9221;42.646;23.380;2022-08-19T10:33:55;94294.47;;;39.83;21.89
3968;BME280;9221;42.646;23.380;2022-08-19T10:36:34;94329.13;;;40.30;21.66
3968;BME280;9221;42.646;23.380;2022-08-19T10:39:04;94314.22;;;40.84;21.59
3968;BME280;9221;42.646;23.380;2022-08-19T10:41:32;94271.66;;;40.88;21.54
3968;BME280;9221;42.646;23.380;2022-08-19T10:44:00;94308.41;;;41.01;21.17
3968;BME280;9221;42.646;23.380;2022-08-19T10:46:27;94336.59;;;41.48;21.06
3968;BME280;9221;42.646;23.380;2022-08-19T10:48:54;94300.97;;;41.62;20.53
3968;BME280;9221;42.646;23.380;2022-08-19T10:51:21;94316.75;;;41.46;20.63
3968;BME280;9221;42.646;23.380;2022-08-19T10:54:05;94309.50;;;41.13;20.06
3968;BME280;9221;42.646;23.380;2022-08-19T10:56:31;94268.03;;;40.72;21.24
3968;BME280;9221;42.646;23.380;2022-08-19T10:59:16;94261.81;;;41.03;20.72
3968;BME280;9221;42.646;23.380;2022-08-19T11:01:44;94305.69;;;41.46;20.50
3968;BME280;9221;42.646;23.380;2022-08-19T11:04:10;94262.91;;;41.15;20.62
3968;BME280;9221;42.646;23.380;2022-08-19T11:06:41;94307.81;;;41.36;20.77
3968;BME280;9221;42.646;23.380;2022-08-19T11:09:09;94303.88;;;41.09;20.47
3968;BME280;9221;42.646;23.380;2022-08-19T11:11:34;94329.66;;;40.97;20.89
3968;BME280;9221;42.646;23.380;2022-08-19T11:14:13;94293.56;;;41.22;20.92
3968;BME280;9221;42.646;23.380;2022-08-19T11:16:39;94304.56;;;41.34;21.04
3968;BME280;9221;42.646;23.380;2022-08-19T11:19:07;94295.94;;;41.07;21.50
3968;BME280;9221;42.646;23.380;2022-08-19T11:21:41;94292.28;;;40.91;21.00
3968;BME280;9221;42.646;23.380;2022-08-19T11:24:13;94232.97;;;40.60;20.57
3968;BME280;9221;42.646;23.380;2022-08-19T11:26:41;94277.00;;;40.81;21.36
3968;BME280;9221;42.646;23.380;2022-08-19T11:29:08;94275.41;;;41.08;21.18
3968;BME280;9221;42.646;23.380;2022-08-19T11:31:37;94279.69;;;41.06;20.81
3968;BME280;9221;42.646;23.380;2022-08-19T11:34:06;94239.03;;;40.94;20.80
3968;BME280;9221;42.646;23.380;2022-08-19T11:36:33;94250.25;;;41.14;20.25
3968;BME280;9221;42.646;23.380;2022-08-19T11:38:59;94238.38;;;40.85;21.44
3968;BME280;9221;42.646;23.380;2022-08-19T11:41:25;94274.44;;;41.17;21.20
3968;BME280;9221;42.646;23.380;2022-08-19T11:43:52;94254.50;;;41.55;21.02
3968;BME280;9221;42.646;23.380;2022-08-19T11:46:22;94274.72;;;42.04;20.23
3968;BME280;9221;42.646;23.380;2022-08-19T11:48:48;94269.81;;;41.97;19.75
3968;BME280;9221;42.646;23.380;2022-08-19T11:51:18;94258.88;;;42.04;20.34
3968;BME280;9221;42.646;23.380;2022-08-19T11:53:45;94283.38;;;41.70;20.36
3968;BME280;9221;42.646;23.380;2022-08-19T11:56:11;94254.44;;;41.52;20.94
3968;BME280;9221;42.646;23.380;2022-08-19T11:58:37;94263.63;;;41.56;20.40
3968;BME280;9221;42.646;23.380;2022-08-19T12:01:10;94252.19;;;41.57;20.72
3968;BME280;9221;42.646;23.380;2022-08-19T12:03:41;94223.16;;;41.67;20.59
3968;BME280;9221;42.646;23.380;2022-08-19T12:06:13;94230.13;;;41.93;20.67
3968;BME280;9221;42.646;23.380;2022-08-19T12:08:40;94250.00;;;42.31;20.21
3968;BME280;9221;42.646;23.380;2022-08-19T12:11:06;94242.19;;;42.36;19.32
3968;BME280;9221;42.646;23.380;2022-08-19T12:13:36;94214.19;;;42.06;20.01
3968;BME280;9221;42.646;23.380;2022-08-19T12:16:08;94197.97;;;41.72;19.84
3968;BME280;9221;42.646;23.380;2022-08-19T12:18:36;94210.63;;;41.73;20.47
3968;BME280;9221;42.646;23.380;2022-08-19T12:21:02;94242.25;;;42.04;20.64
3968;BME280;9221;42.646;23.380;2022-08-19T12:23:28;94248.63;;;42.40;20.02
3968;BME280;9221;42.646;23.380;2022-08-19T12:25:54;94210.19;;;42.58;19.66
3968;BME280;9221;42.646;23.380;2022-08-19T12:28:21;94178.91;;;42.77;19.99
3968;BME280;9221;42.646;23.380;2022-08-19T12:30:47;94217.09;;;43.27;19.42
3968;BME280;9221;42.646;23.380;2022-08-19T12:33:14;94209.66;;;43.11;18.93
3968;BME280;9221;42.646;23.380;2022-08-19T12:35:41;94216.81;;;43.13;19.43
3968;BME280;9221;42.646;23.380;2022-08-19T12:38:07;94206.31;;;43.02;19.13
3968;BME280;9221;42.646;23.380;2022-08-19T12:40:33;94198.53;;;42.69;19.51
3968;BME280;9221;42.646;23.380;2022-08-19T12:42:58;94216.78;;;42.70;19.58
3968;BME280;9221;42.646;23.380;2022-08-19T12:45:24;94168.00;;;42.69;19.99
3968;BME280;9221;42.646;23.380;2022-08-19T12:47:50;94202.97;;;42.93;19.30
3968;BME280;9221;42.646;23.380;2022-08-19T12:50:16;94207.28;;;42.71;19.72
3968;BME280;9221;42.646;23.380;2022-08-19T12:52:42;94169.16;;;42.48;20.11
3968;BME280;9221;42.646;23.380;2022-08-19T12:55:08;94216.13;;;42.76;19.45
3968;BME280;9221;42.646;23.380;2022-08-19T12:57:34;94191.56;;;42.39;20.01
3968;BME280;9221;42.646;23.380;2022-08-19T13:02:28;94201.44;;;41.85;20.58
3968;BME280;9221;42.646;23.380;2022-08-19T13:04:54;94147.03;;;41.61;20.16
3968;BME280;9221;42.646;23.380;2022-08-19T13:07:19;94210.81;;;41.49;20.29
3968;BME280;9221;42.646;23.380;2022-08-19T13:09:44;94160.81;;;41.41;20.04
3968;BME280;9221;42.646;23.380;2022-08-19T13:12:10;94184.47;;;41.87;19.86
3968;BME280;9221;42.646;23.380;2022-08-19T13:14:39;94199.75;;;41.65;19.94
3968;BME280;9221;42.646;23.380;2022-08-19T13:17:06;94189.00;;;40.99;21.25
3968;BME280;9221;42.646;23.380;2022-08-19T13:19:32;94189.66;;;41.40;20.58
3968;BME280;9221;42.646;23.380;2022-08-19T13:21:57;94192.22;;;41.65;19.90
3968;BME280;9221;42.646;23.380;2022-08-19T13:24:24;94161.47;;;39.93;21.12
3968;BME280;9221;42.646;23.380;2022-08-19T13:26:49;94179.72;;;40.63;21.37